Time;durP1;ratioP1;P1;durP2;ratioP2;P2;SDS_P1;SDS_P2;PMS_P1;PMS_P2;Temp;Humidity;BMP_temperature;BMP_pressure;BME280_temperature;BME280_humidity;BME280_pressure;Samples;Min_cycle;Max_cycle;Signal;HPM_P1;HPM_P2
2021/10/28 00:13:41;;;;;;;4.63;4.23;;;;;;;;;;5111670;28;20269;-84
2021/10/28 00:16:28;;;;;;;4.80;4.40;;;;;;;;;;5111504;28;20184;-84
2021/10/28 00:19:14;;;;;;;4.60;4.00;;;;;;;;;;5111568;28;20667;-84
2021/10/28 00:22:01;;;;;;;5.17;4.67;;;;;;;;;;5111973;28;20753;-84
2021/10/28 00:24:46;;;;;;;5.17;4.43;;;;;;;;;;5111839;28;20656;-84
2021/10/28 00:27:31;;;;;;;5.30;4.30;;;;;;;;;;5112018;28;20187;-84
2021/10/28 00:30:18;;;;;;;6.03;4.13;;;;;;;;;;5111864;28;20208;-84
2021/10/28 00:33:03;;;;;;;6.90;4.37;;;;;;;;;;5111903;28;20192;-84
2021/10/28 00:35:48;;;;;;;4.20;3.90;;;;;;;;;;5111589;28;20188;-84
2021/10/28 00:38:34;;;;;;;4.60;4.10;;;;;;;;;;5111754;28;20275;-84
2021/10/28 00:41:19;;;;;;;5.00;4.60;;;;;;;;;;5112208;28;20180;-83
2021/10/28 00:44:06;;;;;;;6.13;4.53;;;;;;;;;;5111700;28;20261;-84
2021/10/28 00:46:52;;;;;;;4.67;4.27;;;;;;;;;;5111366;28;20192;-83
2021/10/28 00:49:37;;;;;;;4.40;4.00;;;;;;;;;;5111212;28;20204;-84
2021/10/28 00:52:22;;;;;;;4.90;4.40;;;;;;;;;;5111648;28;20189;-84
2021/10/28 00:55:09;;;;;;;11.17;5.50;;;;;;;;;;5111407;28;20311;-84
2021/10/28 00:57:54;;;;;;;4.83;4.40;;;;;;;;;;5111214;28;20278;-84
2021/10/28 01:00:39;;;;;;;6.23;4.83;;;;;;;;;;5091264;28;20194;-84
2021/10/28 01:03:26;;;;;;;5.73;4.60;;;;;;;;;;5091208;28;20255;-84
2021/10/28 01:06:12;;;;;;;5.63;5.13;;;;;;;;;;5091059;28;20243;-84
2021/10/28 01:08:58;;;;;;;8.03;5.17;;;;;;;;;;5091376;28;20182;-84
2021/10/28 01:11:44;;;;;;;8.43;5.70;;;;;;;;;;5090674;28;20251;-83
2021/10/28 01:14:39;;;;;;;8.67;6.37;;;;;;;;;;5090846;28;20184;-84
2021/10/28 01:17:24;;;;;;;9.00;7.13;;;;;;;;;;5090953;28;20208;-84
2021/10/28 01:20:11;;;;;;;8.47;7.20;;;;;;;;;;5091047;28;20657;-84
2021/10/28 01:22:56;;;;;;;7.60;6.03;;;;;;;;;;5091357;28;20185;-84
2021/10/28 01:25:42;;;;;;;7.30;6.47;;;;;;;;;;5094465;28;20599;-84
2021/10/28 01:28:28;;;;;;;11.43;7.37;;;;;;;;;;5094257;28;20668;-84
2021/10/28 01:31:13;;;;;;;8.50;7.60;;;;;;;;;;5094262;28;20263;-83
2021/10/28 01:33:59;;;;;;;12.23;6.90;;;;;;;;;;5094209;28;20656;-83
2021/10/28 01:36:45;;;;;;;9.07;7.23;;;;;;;;;;5094488;28;20653;-84
2021/10/28 01:39:30;;;;;;;9.73;7.77;;;;;;;;;;5094042;28;20661;-83
2021/10/28 01:42:16;;;;;;;11.70;7.73;;;;;;;;;;5094221;28;20669;-84
2021/10/28 01:45:01;;;;;;;9.23;7.13;;;;;;;;;;5093883;28;20633;-84
2021/10/28 01:47:46;;;;;;;9.63;7.70;;;;;;;;;;5093797;28;20284;-83
2021/10/28 01:50:32;;;;;;;10.97;7.17;;;;;;;;;;5093592;28;20314;-84
2021/10/28 01:53:19;;;;;;;8.37;6.60;;;;;;;;;;5093845;28;20205;-84
2021/10/28 01:56:04;;;;;;;8.93;5.90;;;;;;;;;;5093800;28;20189;-83
2021/10/28 01:58:51;;;;;;;6.87;6.10;;;;;;;;;;5100332;28;20787;-83
2021/10/28 02:01:36;;;;;;;7.73;5.63;;;;;;;;;;5114166;28;20188;-84
2021/10/28 02:04:21;;;;;;;8.87;5.80;;;;;;;;;;5114021;28;20669;-83
2021/10/28 02:07:07;;;;;;;8.07;5.83;;;;;;;;;;5114264;28;20565;-84
2021/10/28 02:09:54;;;;;;;7.37;6.17;;;;;;;;;;5113968;28;20295;-83
2021/10/28 02:12:40;;;;;;;9.87;5.60;;;;;;;;;;5113679;28;20192;-83
2021/10/28 02:15:26;;;;;;;6.37;5.17;;;;;;;;;;5113838;28;20208;-83
2021/10/28 02:18:12;;;;;;;10.90;5.60;;;;;;;;;;5114056;28;20193;-83
2021/10/28 02:20:57;;;;;;;6.17;5.53;;;;;;;;;;5113626;28;20751;-83
2021/10/28 02:23:42;;;;;;;8.20;5.27;;;;;;;;;;5114009;28;20569;-83
2021/10/28 02:26:29;;;;;;;7.00;5.67;;;;;;;;;;5113519;28;20184;-84
2021/10/28 02:29:14;;;;;;;6.13;5.27;;;;;;;;;;5113903;28;20652;-83
2021/10/28 02:32:02;;;;;;;8.70;6.33;;;;;;;;;;5113504;28;20692;-83
2021/10/28 02:34:47;;;;;;;6.77;5.60;;;;;;;;;;5113406;28;20203;-83
2021/10/28 02:37:32;;;;;;;8.93;5.37;;;;;;;;;;5113296;28;20183;-83
2021/10/28 02:40:17;;;;;;;6.03;4.87;;;;;;;;;;5113443;28;20583;-83
2021/10/28 02:43:03;;;;;;;6.77;5.27;;;;;;;;;;5113101;28;20184;-83
2021/10/28 02:45:48;;;;;;;7.33;5.10;;;;;;;;;;5113143;28;20659;-83
2021/10/28 02:48:33;;;;;;;6.37;5.47;;;;;;;;;;5113409;28;20652;-83
2021/10/28 02:51:18;;;;;;;5.63;4.90;;;;;;;;;;5112964;28;20289;-83
2021/10/28 02:54:03;;;;;;;6.97;6.00;;;;;;;;;;5112958;28;20299;-83
2021/10/28 02:56:49;;;;;;;10.53;6.80;;;;;;;;;;5112912;28;20200;-83
2021/10/28 02:59:36;;;;;;;12.70;7.57;;;;;;;;;;5112631;28;20231;-83
2021/10/28 03:02:21;;;;;;;11.90;7.60;;;;;;;;;;5112755;28;20270;-84
2021/10/28 03:05:06;;;;;;;11.23;6.90;;;;;;;;;;5112605;28;20655;-83
2021/10/28 03:07:53;;;;;;;9.97;6.30;;;;;;;;;;5112498;28;20188;-83
2021/10/28 03:10:41;;;;;;;8.97;6.60;;;;;;;;;;5112582;28;20262;-83
2021/10/28 03:13:28;;;;;;;11.23;7.47;;;;;;;;;;5112512;28;20226;-83
2021/10/28 03:16:20;;;;;;;9.63;7.40;;;;;;;;;;5112453;28;20203;-83
2021/10/28 03:19:26;;;;;;;8.60;6.30;;;;;;;;;;5112462;28;20208;-83
2021/10/28 03:28:19;;;;;;;7.83;5.37;;;;;;;;;;5112170;28;20218;-82
2021/10/28 03:31:04;;;;;;;6.13;4.93;;;;;;;;;;5112112;28;20462;-81
2021/10/28 03:33:51;;;;;;;7.03;5.23;;;;;;;;;;5112229;28;20183;-82
2021/10/28 03:36:44;;;;;;;10.53;5.83;;;;;;;;;;5112486;28;20185;-83
2021/10/28 03:39:44;;;;;;;8.23;6.53;;;;;;;;;;5112322;28;20184;-83
2021/10/28 03:42:55;;;;;;;10.10;6.90;;;;;;;;;;5111892;28;20188;-83
2021/10/28 03:49:03;;;;;;;12.20;7.77;;;;;;;;;;5112249;28;20204;-82
2021/10/28 03:55:11;;;;;;;61.80;9.37;;;;;;;;;;5112282;28;20694;-81
2021/10/28 04:04:33;;;;;;;11.53;7.53;;;;;;;;;;5106581;28;20230;-82
2021/10/28 04:07:39;;;;;;;12.60;9.90;;;;;;;;;;5111201;28;21236;-83
2021/10/28 04:19:48;;;;;;;14.40;8.20;;;;;;;;;;5111506;28;20313;-83
2021/10/28 04:28:55;;;;;;;47.23;8.43;;;;;;;;;;5111654;28;20525;-81
2021/10/28 04:31:40;;;;;;;12.47;7.17;;;;;;;;;;5111560;28;20334;-82
2021/10/28 04:34:26;;;;;;;27.73;8.13;;;;;;;;;;5111458;28;20291;-83
2021/10/28 04:37:11;;;;;;;14.43;8.17;;;;;;;;;;5111639;28;20663;-83
2021/10/28 04:39:58;;;;;;;25.43;9.40;;;;;;;;;;5111597;28;20192;-82
2021/10/28 04:42:44;;;;;;;15.63;8.90;;;;;;;;;;5108700;28;20199;-81
2021/10/28 04:45:30;;;;;;;33.13;8.60;;;;;;;;;;5111508;28;20196;-84
2021/10/28 04:48:15;;;;;;;17.40;8.27;;;;;;;;;;5111653;28;20234;-80
2021/10/28 04:51:00;;;;;;;39.33;9.77;;;;;;;;;;5111540;28;20216;-82
2021/10/28 04:53:45;;;;;;;74.33;8.67;;;;;;;;;;5111674;28;20188;-82
2021/10/28 04:56:31;;;;;;;14.73;7.60;;;;;;;;;;5111859;28;20307;-81
2021/10/28 04:59:17;;;;;;;12.43;6.90;;;;;;;;;;5114391;28;20313;-82
2021/10/28 05:02:02;;;;;;;10.77;6.50;;;;;;;;;;5115500;28;20179;-83
2021/10/28 05:04:48;;;;;;;10.20;7.10;;;;;;;;;;5115387;28;20192;-85
2021/10/28 05:07:33;;;;;;;93.83;7.37;;;;;;;;;;5115212;28;20282;-85
2021/10/28 05:10:18;;;;;;;78.30;8.77;;;;;;;;;;5115297;28;20263;-83
2021/10/28 05:13:05;;;;;;;24.43;7.50;;;;;;;;;;5114901;28;20297;-84
2021/10/28 05:15:50;;;;;;;66.43;7.70;;;;;;;;;;5114581;28;20752;-83
2021/10/28 05:18:40;;;;;;;9.70;6.20;;;;;;;;;;5114326;28;20184;-84
2021/10/28 05:21:25;;;;;;;46.00;7.00;;;;;;;;;;5114447;28;20316;-85
2021/10/28 05:24:12;;;;;;;12.47;6.27;;;;;;;;;;5114337;28;20648;-83
2021/10/28 05:26:57;;;;;;;22.27;6.93;;;;;;;;;;5114602;28;20299;-85
2021/10/28 05:29:43;;;;;;;8.10;6.37;;;;;;;;;;5115045;28;20184;-85
2021/10/28 05:32:28;;;;;;;149.83;8.23;;;;;;;;;;5115310;28;20729;-86
2021/10/28 05:35:13;;;;;;;19.43;6.73;;;;;;;;;;5115316;28;20183;-85
2021/10/28 05:37:58;;;;;;;43.20;7.70;;;;;;;;;;5114632;28;20775;-85
2021/10/28 05:40:44;;;;;;;64.97;7.13;;;;;;;;;;5114632;28;20188;-84
2021/10/28 05:43:29;;;;;;;14.43;6.07;;;;;;;;;;5114620;28;20656;-84
2021/10/28 05:46:15;;;;;;;17.47;6.03;;;;;;;;;;5114351;28;20200;-83
2021/10/28 05:49:00;;;;;;;16.07;5.87;;;;;;;;;;5114269;28;20188;-83
2021/10/28 05:51:46;;;;;;;9.93;6.10;;;;;;;;;;5114144;28;20338;-84
2021/10/28 05:54:31;;;;;;;8.17;6.03;;;;;;;;;;5114370;28;20184;-84
2021/10/28 05:57:17;;;;;;;6.00;5.50;;;;;;;;;;5114325;28;20180;-84
2021/10/28 06:00:01;;;;;;;5.90;5.37;;;;;;;;;;5114149;28;20321;-84
2021/10/28 06:02:48;;;;;;;6.30;5.67;;;;;;;;;;5114429;28;20272;-84
2021/10/28 06:05:33;;;;;;;6.57;6.03;;;;;;;;;;5114293;28;20188;-84
2021/10/28 06:08:18;;;;;;;6.00;5.50;;;;;;;;;;5113874;28;20191;-84
2021/10/28 06:11:03;;;;;;;10.53;7.47;;;;;;;;;;5114077;28;20664;-83
2021/10/28 06:13:48;;;;;;;7.83;6.03;;;;;;;;;;5113810;28;20196;-83
2021/10/28 06:16:39;;;;;;;5.70;5.20;;;;;;;;;;5113996;28;20184;-84
2021/10/28 06:19:25;;;;;;;6.80;5.53;;;;;;;;;;5114170;28;20566;-84
2021/10/28 06:22:10;;;;;;;6.10;5.50;;;;;;;;;;5113976;28;20189;-84
2021/10/28 06:24:55;;;;;;;5.07;4.67;;;;;;;;;;5113600;28;20701;-83
2021/10/28 06:27:41;;;;;;;6.13;5.60;;;;;;;;;;5113877;28;20664;-83
2021/10/28 06:30:26;;;;;;;6.30;5.70;;;;;;;;;;5113662;28;20257;-83
2021/10/28 06:33:14;;;;;;;5.87;5.27;;;;;;;;;;5113688;28;20208;-83
2021/10/28 06:36:03;;;;;;;6.50;5.90;;;;;;;;;;5113509;28;20196;-83
2021/10/28 06:38:48;;;;;;;8.13;7.30;;;;;;;;;;5113229;28;20238;-83
2021/10/28 06:41:33;;;;;;;10.40;8.93;;;;;;;;;;5113646;28;20610;-83
2021/10/28 06:44:18;;;;;;;16.90;11.20;;;;;;;;;;5113370;28;20188;-83
2021/10/28 06:47:04;;;;;;;12.90;10.80;;;;;;;;;;5113304;28;20558;-83
2021/10/28 06:49:49;;;;;;;16.80;11.60;;;;;;;;;;5113016;28;20236;-83
2021/10/28 06:52:46;;;;;;;16.93;11.40;;;;;;;;;;5113095;28;20212;-83
2021/10/28 06:55:39;;;;;;;13.53;11.63;;;;;;;;;;5113161;28;20311;-83
2021/10/28 07:04:31;;;;;;;17.47;12.43;;;;;;;;;;5112872;28;20231;-83
2021/10/28 07:07:17;;;;;;;17.47;13.77;;;;;;;;;;5112931;28;20204;-83
2021/10/28 07:10:07;;;;;;;20.07;14.50;;;;;;;;;;5112822;28;20181;-83
2021/10/28 07:12:56;;;;;;;19.13;14.03;;;;;;;;;;5112853;28;20401;-83
2021/10/28 07:15:43;;;;;;;20.50;14.77;;;;;;;;;;5112752;28;20743;-83
2021/10/28 07:18:39;;;;;;;23.40;15.23;;;;;;;;;;5113072;28;20204;-83
2021/10/28 07:21:43;;;;;;;20.70;15.43;;;;;;;;;;5111866;28;20203;-84
2021/10/28 07:27:54;;;;;;;19.00;15.40;;;;;;;;;;5062464;28;20200;-83
2021/10/28 07:30:59;;;;;;;21.43;16.53;;;;;;;;;;5112486;28;20758;-84
2021/10/28 07:58:29;;;;;;;37.43;19.30;;;;;;;;;;5112533;28;20258;-84
2021/10/28 08:13:52;;;;;;;29.47;20.07;;;;;;;;;;5112223;28;20613;-84
2021/10/28 08:19:46;;;;;;;32.10;20.40;;;;;;;;;;5112740;28;20172;-84
2021/10/28 08:22:35;;;;;;;31.93;21.47;;;;;;;;;;5112400;28;20181;-84
2021/10/28 08:28:44;;;;;;;35.33;21.67;;;;;;;;;;5112496;28;20255;-84
2021/10/28 08:31:31;;;;;;;34.70;21.50;;;;;;;;;;5112573;28;20307;-84
2021/10/28 08:34:20;;;;;;;32.63;21.10;;;;;;;;;;5116649;28;20315;-83
2021/10/28 08:37:10;;;;;;;32.97;20.73;;;;;;;;;;5116538;28;20272;-83
2021/10/28 08:39:55;;;;;;;33.43;22.23;;;;;;;;;;5116452;28;20694;-83
2021/10/28 08:42:40;;;;;;;41.73;22.07;;;;;;;;;;5116727;28;20239;-83
2021/10/28 08:45:32;;;;;;;42.87;22.73;;;;;;;;;;5116471;28;20319;-84
2021/10/28 08:48:21;;;;;;;35.40;22.53;;;;;;;;;;5116542;28;20185;-84
2021/10/28 08:51:15;;;;;;;37.27;22.13;;;;;;;;;;5116616;28;20224;-84
2021/10/28 08:57:28;;;;;;;35.43;21.60;;;;;;;;;;5117333;28;20184;-84
2021/10/28 09:24:57;;;;;;;32.60;17.77;;;;;;;;;;5115657;28;20576;-85
2021/10/28 09:27:46;;;;;;;33.53;17.47;;;;;;;;;;5116179;28;20196;-84
2021/10/28 09:30:36;;;;;;;36.90;17.90;;;;;;;;;;5115753;28;20235;-86
2021/10/28 09:33:27;;;;;;;36.90;19.07;;;;;;;;;;5115544;28;20212;-84
2021/10/28 09:45:54;;;;;;;45.63;21.23;;;;;;;;;;5115048;28;20184;-84
2021/10/28 09:51:47;;;;;;;43.97;23.73;;;;;;;;;;5115890;28;20328;-84
2021/10/28 09:54:39;;;;;;;49.07;23.60;;;;;;;;;;5115388;28;20204;-85
2021/10/28 09:57:49;;;;;;;45.13;20.83;;;;;;;;;;5115159;28;20204;-83
2021/10/28 10:00:35;;;;;;;35.73;19.83;;;;;;;;;;5115600;28;20771;-83
2021/10/28 10:03:25;;;;;;;37.90;19.27;;;;;;;;;;5115389;28;20180;-84
2021/10/28 10:06:16;;;;;;;34.87;19.87;;;;;;;;;;5115013;28;20668;-84
2021/10/28 10:09:02;;;;;;;30.57;18.03;;;;;;;;;;5115386;28;20204;-84
2021/10/28 10:11:49;;;;;;;33.03;18.93;;;;;;;;;;5115190;28;20180;-83
2021/10/28 10:14:34;;;;;;;33.20;18.87;;;;;;;;;;5115338;28;20208;-82
2021/10/28 10:17:20;;;;;;;30.97;18.67;;;;;;;;;;5115241;28;20192;-82
2021/10/28 10:20:09;;;;;;;26.10;16.33;;;;;;;;;;5115276;28;20188;-83
2021/10/28 10:22:58;;;;;;;34.17;17.77;;;;;;;;;;5115332;28;20262;-82
2021/10/28 10:25:55;;;;;;;23.13;14.73;;;;;;;;;;5115481;28;20188;-85
2021/10/28 11:05:58;;;;;;;28.90;16.50;;;;;;;;;;5114837;28;20180;-82
2021/10/28 11:21:31;;;;;;;27.10;17.67;;;;;;;;;;5115100;28;20694;-86
2021/10/28 11:27:54;;;;;;;34.13;19.53;;;;;;;;;;5106718;28;20257;-89
2021/10/28 11:31:12;;;;;;;30.93;19.03;;;;;;;;;;5114032;28;20192;-86
2021/10/28 12:14:54;;;;;;;27.97;18.50;;;;;;;;;;5112388;28;20212;-86
2021/10/28 12:21:27;;;;;;;32.13;19.60;;;;;;;;;;5094604;28;20203;-86
2021/10/28 12:24:27;;;;;;;27.70;18.67;;;;;;;;;;5112863;28;20188;-89
2021/10/28 12:45:46;;;;;;;25.03;17.63;;;;;;;;;;5112247;28;20218;-86
2021/10/28 12:51:50;;;;;;;25.63;18.33;;;;;;;;;;5108232;28;20578;-90
2021/10/28 13:04:13;;;;;;;27.60;18.80;;;;;;;;;;5111477;28;20192;-88
2021/10/28 13:50:09;;;;;;;28.77;16.97;;;;;;;;;;5115731;28;20258;-87
2021/10/28 13:56:25;;;;;;;23.40;17.80;;;;;;;;;;5102660;28;20676;-88
2021/10/28 13:59:33;;;;;;;24.90;18.87;;;;;;;;;;5116213;28;20235;-88
2021/10/28 14:21:17;;;;;;;23.00;17.77;;;;;;;;;;5032715;28;20183;-89
2021/10/28 14:24:22;;;;;;;25.67;18.77;;;;;;;;;;5032030;28;20210;-85
2021/10/28 14:36:54;;;;;;;25.60;17.70;;;;;;;;;;5115566;28;20713;-88
2021/10/28 15:28:56;;;;;;;24.80;17.77;;;;;;;;;;5069167;28;20218;-86
2021/10/28 15:32:11;;;;;;;21.60;17.23;;;;;;;;;;5068566;28;20194;-84
2021/10/28 15:35:08;;;;;;;23.37;17.50;;;;;;;;;;5068346;28;20186;-85
2021/10/28 15:38:12;;;;;;;21.33;16.73;;;;;;;;;;5068350;28;20190;-84
2021/10/28 15:56:47;;;;;;;23.83;18.27;;;;;;;;;;5048505;28;20175;-85
2021/10/28 16:24:07;;;;;;;23.93;18.80;;;;;;;;;;5016513;28;20212;-87
2021/10/28 16:26:52;;;;;;;26.37;19.03;;;;;;;;;;5014632;28;20240;-87
2021/10/28 16:29:38;;;;;;;24.23;18.97;;;;;;;;;;5015635;28;20191;-86
2021/10/28 16:32:23;;;;;;;21.50;17.67;;;;;;;;;;5014540;28;20289;-86
2021/10/28 16:35:08;;;;;;;26.00;19.53;;;;;;;;;;5014020;28;20220;-86
2021/10/28 16:37:55;;;;;;;23.47;18.60;;;;;;;;;;5014339;28;20311;-84
2021/10/28 16:40:41;;;;;;;24.23;18.53;;;;;;;;;;5013708;28;20196;-84
2021/10/28 16:43:26;;;;;;;23.73;19.03;;;;;;;;;;5013921;28;20255;-85
2021/10/28 16:46:11;;;;;;;25.87;18.73;;;;;;;;;;5013548;28;20560;-85
2021/10/28 16:48:56;;;;;;;25.83;19.47;;;;;;;;;;5013704;28;20196;-85
2021/10/28 16:51:42;;;;;;;26.43;19.50;;;;;;;;;;5013376;28;20267;-85
2021/10/28 16:54:29;;;;;;;24.50;19.63;;;;;;;;;;5013742;28;20235;-86
2021/10/28 16:57:14;;;;;;;25.03;18.93;;;;;;;;;;5013545;28;20664;-85
2021/10/28 16:59:59;;;;;;;26.50;19.53;;;;;;;;;;5013379;28;20741;-86
2021/10/28 17:02:44;;;;;;;29.80;22.00;;;;;;;;;;5013166;28;20231;-87
2021/10/28 17:05:29;;;;;;;26.00;20.83;;;;;;;;;;5013500;28;20184;-88
2021/10/28 17:08:14;;;;;;;29.63;21.37;;;;;;;;;;5013786;28;20192;-85
2021/10/28 17:11:01;;;;;;;27.40;20.00;;;;;;;;;;5013316;28;20196;-84
2021/10/28 17:13:47;;;;;;;28.97;21.33;;;;;;;;;;5013244;28;20192;-84
2021/10/28 17:16:33;;;;;;;26.60;20.17;;;;;;;;;;5012873;28;20197;-85
2021/10/28 17:19:19;;;;;;;33.10;21.80;;;;;;;;;;5031130;28;20191;-85
2021/10/28 17:22:04;;;;;;;27.20;20.33;;;;;;;;;;5031440;28;20315;-85
2021/10/28 17:24:50;;;;;;;28.10;21.07;;;;;;;;;;5031107;28;20191;-88
2021/10/28 17:27:37;;;;;;;30.27;22.57;;;;;;;;;;5031112;28;20188;-85
2021/10/28 17:30:23;;;;;;;37.13;22.57;;;;;;;;;;5031463;28;20194;-85
2021/10/28 17:33:08;;;;;;;31.67;23.30;;;;;;;;;;5031250;28;20242;-83
2021/10/28 17:35:53;;;;;;;31.90;24.17;;;;;;;;;;5039511;28;20197;-84
2021/10/28 17:38:38;;;;;;;33.80;23.17;;;;;;;;;;5050966;28;20190;-83
2021/10/28 17:41:24;;;;;;;34.60;24.80;;;;;;;;;;5050621;28;20190;-84
2021/10/28 17:44:11;;;;;;;30.80;23.03;;;;;;;;;;5051069;28;20693;-84
2021/10/28 17:46:56;;;;;;;31.70;21.87;;;;;;;;;;5050235;28;20259;-85
2021/10/28 17:49:42;;;;;;;29.57;21.60;;;;;;;;;;5050490;28;20253;-84
2021/10/28 17:52:27;;;;;;;29.70;21.07;;;;;;;;;;5051355;28;20837;-83
2021/10/28 17:55:12;;;;;;;26.70;20.47;;;;;;;;;;5050713;28;20186;-84
2021/10/28 17:57:57;;;;;;;26.37;20.13;;;;;;;;;;5050706;28;20936;-84
2021/10/28 18:00:44;;;;;;;26.83;19.53;;;;;;;;;;5050498;28;20206;-84
2021/10/28 18:03:31;;;;;;;27.27;20.03;;;;;;;;;;5049854;28;20238;-84
2021/10/28 18:06:16;;;;;;;31.27;19.50;;;;;;;;;;5049967;28;20190;-83
2021/10/28 18:09:02;;;;;;;27.47;19.17;;;;;;;;;;5050388;28;20293;-83
2021/10/28 18:11:48;;;;;;;30.80;21.43;;;;;;;;;;5049794;28;20567;-84
2021/10/28 18:14:34;;;;;;;30.20;20.47;;;;;;;;;;5050068;28;20188;-84
2021/10/28 18:17:20;;;;;;;27.50;20.07;;;;;;;;;;5044111;28;20555;-85
2021/10/28 18:20:06;;;;;;;34.07;22.73;;;;;;;;;;5030763;28;20192;-85
2021/10/28 18:22:52;;;;;;;32.40;22.13;;;;;;;;;;5030889;28;20566;-85
2021/10/28 18:25:37;;;;;;;32.50;23.70;;;;;;;;;;5030840;28;20531;-85
2021/10/28 18:28:22;;;;;;;29.80;22.03;;;;;;;;;;5029688;28;20195;-84
2021/10/28 18:31:07;;;;;;;31.10;20.63;;;;;;;;;;5030283;28;20215;-84
2021/10/28 18:33:54;;;;;;;28.13;21.00;;;;;;;;;;5029458;28;20595;-84
2021/10/28 18:36:39;;;;;;;29.67;20.90;;;;;;;;;;5029982;28;20250;-84
2021/10/28 18:39:24;;;;;;;26.90;20.57;;;;;;;;;;5029494;28;20195;-84
2021/10/28 18:42:09;;;;;;;54.63;29.17;;;;;;;;;;5030507;28;20196;-85
2021/10/28 18:44:54;;;;;;;74.00;31.80;;;;;;;;;;5029889;28;20548;-85
2021/10/28 18:47:39;;;;;;;106.93;34.67;;;;;;;;;;5029180;28;20191;-86
2021/10/28 18:50:25;;;;;;;108.23;30.27;;;;;;;;;;5030199;28;20278;-85
2021/10/28 18:53:11;;;;;;;138.17;29.43;;;;;;;;;;5030426;28;20746;-85
2021/10/28 18:55:57;;;;;;;154.60;31.10;;;;;;;;;;5032234;28;20722;-87
2021/10/28 18:58:43;;;;;;;64.37;27.93;;;;;;;;;;5031678;28;20191;-84
2021/10/28 19:01:30;;;;;;;275.97;31.10;;;;;;;;;;5031886;28;20674;-87
2021/10/28 19:04:15;;;;;;;345.77;34.60;;;;;;;;;;5031372;28;20210;-85
2021/10/28 19:07:02;;;;;;;89.73;28.50;;;;;;;;;;5031475;28;20766;-83
2021/10/28 19:09:48;;;;;;;167.13;29.27;;;;;;;;;;5031025;28;20187;-84
2021/10/28 19:12:32;;;;;;;76.50;27.40;;;;;;;;;;5031023;28;20659;-84
2021/10/28 19:15:18;;;;;;;234.77;28.27;;;;;;;;;;5030487;28;20184;-84
2021/10/28 19:18:05;;;;;;;209.10;28.90;;;;;;;;;;5030821;28;20665;-84
2021/10/28 19:20:51;;;;;;;198.93;29.30;;;;;;;;;;5030798;28;20179;-84
2021/10/28 19:23:39;;;;;;;224.63;27.97;;;;;;;;;;5030484;28;20258;-84
2021/10/28 19:26:24;;;;;;;414.50;33.03;;;;;;;;;;5031090;28;20235;-84
2021/10/28 19:29:10;;;;;;;479.47;32.97;;;;;;;;;;5031050;28;20751;-84
2021/10/28 19:31:58;;;;;;;391.87;34.37;;;;;;;;;;5030357;28;20187;-83
2021/10/28 19:34:44;;;;;;;292.03;33.27;;;;;;;;;;5030289;28;20246;-84
2021/10/28 19:37:35;;;;;;;232.60;32.70;;;;;;;;;;5030638;28;20191;-84
2021/10/28 19:46:27;;;;;;;415.90;36.07;;;;;;;;;;5030569;28;20234;-84
2021/10/28 19:49:14;;;;;;;74.37;31.07;;;;;;;;;;5031605;28;20314;-83
2021/10/28 19:52:01;;;;;;;239.10;35.73;;;;;;;;;;5034925;28;20187;-85
2021/10/28 19:54:47;;;;;;;93.93;34.27;;;;;;;;;;5034044;28;20187;-83
2021/10/28 19:57:36;;;;;;;205.17;37.40;;;;;;;;;;5034631;28;20191;-83
2021/10/28 20:00:28;;;;;;;512.10;44.00;;;;;;;;;;5034463;28;20281;-83
2021/10/28 20:03:44;;;;;;;349.53;39.43;;;;;;;;;;5034015;28;20247;-83
2021/10/28 20:06:46;;;;;;;286.43;37.53;;;;;;;;;;5034369;28;20274;-82
2021/10/28 20:21:56;;;;;;;199.43;36.83;;;;;;;;;;5033637;28;20623;-84
2021/10/28 20:24:41;;;;;;;164.40;38.10;;;;;;;;;;5033858;28;20207;-83
2021/10/28 20:27:26;;;;;;;122.37;36.77;;;;;;;;;;5033792;28;20262;-83
2021/10/28 20:30:13;;;;;;;428.03;43.13;;;;;;;;;;5033259;28;20196;-83
2021/10/28 20:32:58;;;;;;;109.87;37.20;;;;;;;;;;5033585;28;20188;-82
2021/10/28 20:36:10;;;;;;;203.17;38.40;;;;;;;;;;5033394;28;20587;-85
2021/10/28 20:38:56;;;;;;;391.50;42.70;;;;;;;;;;5033316;28;20194;-82
2021/10/28 20:41:41;;;;;;;130.87;38.47;;;;;;;;;;5033209;28;20195;-82
2021/10/28 20:44:26;;;;;;;204.50;38.70;;;;;;;;;;5033756;28;20222;-82
2021/10/28 20:47:13;;;;;;;488.80;41.67;;;;;;;;;;5033337;28;20187;-84
2021/10/28 20:49:59;;;;;;;167.23;41.40;;;;;;;;;;5033561;28;20588;-83
2021/10/28 20:52:44;;;;;;;241.00;38.70;;;;;;;;;;5033316;28;20652;-83
2021/10/28 20:55:30;;;;;;;245.47;36.50;;;;;;;;;;5033380;28;20544;-84
2021/10/28 20:58:16;;;;;;;148.10;33.60;;;;;;;;;;5033294;28;20191;-83
2021/10/28 21:01:01;;;;;;;157.67;33.77;;;;;;;;;;5033105;28;20204;-83
2021/10/28 21:03:47;;;;;;;209.00;34.93;;;;;;;;;;5032617;28;20277;-83
2021/10/28 21:06:32;;;;;;;140.60;34.80;;;;;;;;;;5032947;28;20296;-83
2021/10/28 21:09:17;;;;;;;341.13;37.97;;;;;;;;;;5033090;28;20283;-84
2021/10/28 21:12:02;;;;;;;159.43;33.70;;;;;;;;;;5032839;28;20282;-83
2021/10/28 21:14:48;;;;;;;63.73;32.73;;;;;;;;;;5032483;28;20655;-83
2021/10/28 21:17:33;;;;;;;152.53;35.90;;;;;;;;;;5032649;28;20273;-83
2021/10/28 21:20:20;;;;;;;107.47;33.43;;;;;;;;;;5032360;28;20196;-83
2021/10/28 21:23:05;;;;;;;258.37;37.50;;;;;;;;;;5032534;28;20262;-83
2021/10/28 21:25:50;;;;;;;54.67;31.93;;;;;;;;;;5033140;28;20346;-83
2021/10/28 21:28:35;;;;;;;166.50;32.57;;;;;;;;;;5033712;28;20659;-83
2021/10/28 21:31:20;;;;;;;304.47;37.27;;;;;;;;;;5032654;28;20187;-83
2021/10/28 21:34:05;;;;;;;288.07;33.97;;;;;;;;;;5032738;28;20183;-82
2021/10/28 21:36:52;;;;;;;121.40;32.90;;;;;;;;;;5032685;28;20595;-83
2021/10/28 21:39:37;;;;;;;55.03;31.00;;;;;;;;;;5032636;28;20269;-83
2021/10/28 21:42:23;;;;;;;236.33;33.60;;;;;;;;;;5033018;28;20326;-83
2021/10/28 21:45:11;;;;;;;124.60;32.40;;;;;;;;;;5032298;28;20730;-83
2021/10/28 21:47:56;;;;;;;170.27;34.27;;;;;;;;;;5032491;28;20207;-83
2021/10/28 21:50:42;;;;;;;86.77;31.97;;;;;;;;;;5032931;28;20230;-83
2021/10/28 21:53:33;;;;;;;204.13;34.40;;;;;;;;;;5032762;28;20547;-83
2021/10/28 21:56:26;;;;;;;75.40;32.43;;;;;;;;;;5033217;28;20682;-84
2021/10/28 21:59:24;;;;;;;274.03;35.40;;;;;;;;;;5033246;28;20196;-84
2021/10/28 22:02:20;;;;;;;211.70;35.67;;;;;;;;;;5032927;28;20382;-83
2021/10/28 22:05:21;;;;;;;73.73;30.40;;;;;;;;;;5032987;28;20284;-83
2021/10/28 22:26:40;;;;;;;67.83;31.27;;;;;;;;;;5032140;28;20206;-83
2021/10/28 22:29:25;;;;;;;191.83;33.20;;;;;;;;;;5032203;28;20262;-82
2021/10/28 22:32:11;;;;;;;118.77;32.50;;;;;;;;;;5032112;28;20191;-82
2021/10/28 22:34:57;;;;;;;348.37;35.80;;;;;;;;;;5031882;28;20183;-82
2021/10/28 22:37:47;;;;;;;158.37;34.30;;;;;;;;;;5032341;28;20207;-82
2021/10/28 22:40:34;;;;;;;62.33;31.47;;;;;;;;;;5031840;28;20208;-81
2021/10/28 22:43:21;;;;;;;319.20;36.17;;;;;;;;;;5032268;28;20207;-83
2021/10/28 22:46:06;;;;;;;134.27;33.93;;;;;;;;;;5031801;28;20553;-83
2021/10/28 22:48:51;;;;;;;78.83;31.40;;;;;;;;;;5032016;28;20298;-83
2021/10/28 22:51:36;;;;;;;370.90;36.33;;;;;;;;;;5031509;28;20227;-83
2021/10/28 22:54:21;;;;;;;301.70;37.00;;;;;;;;;;5031458;28;20188;-83
2021/10/28 22:57:10;;;;;;;211.37;35.30;;;;;;;;;;5031665;28;20187;-83
2021/10/28 22:59:57;;;;;;;391.77;40.20;;;;;;;;;;5031408;28;20261;-83
2021/10/28 23:02:47;;;;;;;226.40;34.87;;;;;;;;;;5031551;28;20253;-83
2021/10/28 23:05:54;;;;;;;107.93;37.40;;;;;;;;;;5030974;28;20215;-84
2021/10/28 23:15:03;;;;;;;145.53;33.00;;;;;;;;;;5031454;28;20683;-83
2021/10/28 23:20:49;;;;;;;296.33;37.07;;;;;;;;;;5031253;28;20652;-83
2021/10/28 23:23:34;;;;;;;179.83;36.23;;;;;;;;;;5031202;28;20671;-83
2021/10/28 23:26:19;;;;;;;592.57;51.97;;;;;;;;;;5035256;28;20218;-84
2021/10/28 23:29:04;;;;;;;175.97;34.73;;;;;;;;;;5035223;28;20672;-83
2021/10/28 23:31:49;;;;;;;227.73;38.90;;;;;;;;;;5035102;28;20199;-83
2021/10/28 23:34:35;;;;;;;149.07;35.07;;;;;;;;;;5035233;28;20183;-83
2021/10/28 23:37:20;;;;;;;92.83;33.80;;;;;;;;;;5035162;28;20226;-84
2021/10/28 23:40:06;;;;;;;90.50;32.17;;;;;;;;;;5034977;28;20556;-83
2021/10/28 23:42:52;;;;;;;193.27;34.53;;;;;;;;;;5034905;28;20207;-84
2021/10/28 23:45:37;;;;;;;170.93;33.20;;;;;;;;;;5034964;28;20226;-83
2021/10/28 23:48:23;;;;;;;103.57;32.70;;;;;;;;;;5034954;28;20183;-83
2021/10/28 23:51:09;;;;;;;233.67;35.43;;;;;;;;;;5034631;28;20277;-83
2021/10/28 23:53:54;;;;;;;178.30;39.77;;;;;;;;;;5035147;28;20191;-83
2021/10/28 23:56:39;;;;;;;99.20;38.03;;;;;;;;;;5035121;28;20183;-84
2021/10/28 23:59:24;;;;;;;155.70;34.47;;;;;;;;;;5034857;28;20196;-83
